Time;durP1;ratioP1;P1;durP2;ratioP2;P2;SDS_P1;SDS_P2;PMS_P1;PMS_P2;Temp;Humidity;BMP_temperature;BMP_pressure;BME280_temperature;BME280_humidity;BME280_pressure;Samples;Min_cycle;Max_cycle;Signal;HPM_P1;HPM_P2
2022/05/28 00:01:25;;;;;;;12.63;8.57;;;23.50;99.90;;;;;;5071245;28;20449;-65
2022/05/28 00:03:53;;;;;;;11.30;7.33;;;23.40;99.90;;;;;;5071206;28;20485;-66
2022/05/28 00:06:25;;;;;;;13.20;7.50;;;23.00;99.90;;;;;;5071114;28;20461;-65
2022/05/28 00:08:52;;;;;;;12.00;7.30;;;22.90;99.90;;;;;;5070555;28;20506;-66
2022/05/28 00:11:21;;;;;;;11.70;7.43;;;23.00;99.90;;;;;;5070647;28;21075;-66
2022/05/28 00:13:49;;;;;;;12.63;7.20;;;23.00;99.90;;;;;;5070674;28;20441;-64
2022/05/28 00:16:17;;;;;;;11.83;6.53;;;22.70;99.90;;;;;;5071025;28;20480;-65
2022/05/28 00:18:45;;;;;;;13.07;6.67;;;22.50;99.90;;;;;;5070390;28;20476;-64
2022/05/28 00:21:13;;;;;;;10.20;7.00;;;22.40;99.90;;;;;;5070989;28;20566;-65
2022/05/28 00:23:44;;;;;;;10.10;6.40;;;22.50;99.90;;;;;;5070525;28;20445;-64
2022/05/28 00:26:12;;;;;;;9.10;6.40;;;22.70;99.90;;;;;;5070497;28;20453;-65
2022/05/28 00:28:39;;;;;;;8.23;5.67;;;22.90;99.90;;;;;;5070561;28;20453;-64
2022/05/28 00:31:07;;;;;;;8.30;6.37;;;22.90;99.90;;;;;;5070665;28;20457;-66
2022/05/28 00:33:34;;;;;;;9.53;5.03;;;22.90;99.90;;;;;;5070579;28;20972;-66
2022/05/28 00:36:02;;;;;;;7.90;5.90;;;22.90;99.90;;;;;;5070214;28;20481;-66
2022/05/28 00:38:29;;;;;;;11.10;6.43;;;23.10;99.90;;;;;;5070543;28;20821;-66
2022/05/28 00:41:00;;;;;;;7.70;5.90;;;23.20;99.90;;;;;;5069976;28;20483;-65
2022/05/28 00:43:27;;;;;;;7.70;6.37;;;23.30;99.90;;;;;;5070586;28;20472;-65
2022/05/28 00:45:59;;;;;;;11.43;7.00;;;23.20;99.90;;;;;;5070257;28;20840;-63
2022/05/28 00:48:32;;;;;;;10.20;6.93;;;23.00;99.90;;;;;;5070357;28;20453;-64
2022/05/28 00:51:04;;;;;;;8.90;7.17;;;22.90;99.90;;;;;;5070024;28;20445;-64
2022/05/28 00:53:33;;;;;;;10.83;7.33;;;22.70;99.90;;;;;;5070235;28;20456;-66
2022/05/28 00:56:03;;;;;;;9.90;7.60;;;22.80;99.90;;;;;;5070052;28;20519;-63
2022/05/28 00:58:30;;;;;;;8.60;7.20;;;22.60;99.90;;;;;;5070175;28;20453;-65
2022/05/28 01:00:58;;;;;;;10.00;7.63;;;22.50;99.90;;;;;;5069774;28;20445;-66
2022/05/28 01:03:31;;;;;;;12.60;6.80;;;22.60;99.90;;;;;;5070075;28;20457;-65
2022/05/28 01:06:05;;;;;;;10.30;6.07;;;22.70;99.90;;;;;;5069876;28;20457;-65
2022/05/28 01:08:38;;;;;;;11.50;7.37;;;22.80;99.90;;;;;;5069503;28;20454;-66
2022/05/28 01:11:13;;;;;;;9.87;6.60;;;23.00;99.90;;;;;;5069983;28;20453;-65
2022/05/28 01:13:46;;;;;;;8.57;6.23;;;22.90;99.90;;;;;;5069438;28;20957;-64
2022/05/28 01:16:20;;;;;;;7.90;5.40;;;22.90;99.90;;;;;;5069532;28;20835;-63
2022/05/28 01:18:50;;;;;;;10.63;6.40;;;22.70;99.90;;;;;;5069877;28;20449;-65
2022/05/28 01:21:26;;;;;;;10.40;6.10;;;22.60;99.90;;;;;;5069730;28;20453;-66
2022/05/28 01:24:01;;;;;;;12.20;6.60;;;22.40;99.90;;;;;;5069542;28;20449;-64
2022/05/28 01:26:34;;;;;;;9.90;5.90;;;22.40;99.90;;;;;;5069366;28;20476;-65
2022/05/28 01:29:08;;;;;;;10.23;5.60;;;22.30;99.90;;;;;;5069705;28;20453;-66
2022/05/28 01:31:35;;;;;;;7.83;5.53;;;22.20;99.90;;;;;;5069619;28;20463;-64
2022/05/28 01:34:05;;;;;;;9.00;5.20;;;21.80;99.90;;;;;;5069774;28;20937;-66
2022/05/28 01:36:34;;;;;;;11.30;5.60;;;21.70;99.90;;;;;;5069454;28;20485;-66
2022/05/28 01:39:03;;;;;;;9.90;6.67;;;21.50;99.90;;;;;;5069511;28;20452;-65
2022/05/28 01:41:31;;;;;;;9.27;5.50;;;21.50;99.90;;;;;;5068856;28;20546;-64
2022/05/28 01:43:59;;;;;;;8.67;5.20;;;21.50;99.90;;;;;;5069634;28;20960;-64
2022/05/28 01:46:30;;;;;;;6.87;5.40;;;21.50;99.90;;;;;;5069498;28;20472;-65
2022/05/28 01:48:58;;;;;;;9.80;6.10;;;21.40;99.90;;;;;;5069166;28;20503;-65
2022/05/28 01:51:30;;;;;;;12.63;5.57;;;21.50;99.90;;;;;;5069440;28;20460;-66
2022/05/28 01:54:11;;;;;;;9.30;6.10;;;21.50;99.90;;;;;;5071101;28;20459;-64
2022/05/28 01:56:42;;;;;;;12.10;6.47;;;21.50;99.90;;;;;;5073490;28;20496;-65
2022/05/28 01:59:09;;;;;;;10.10;6.40;;;21.50;99.90;;;;;;5073422;28;20996;-65
2022/05/28 02:01:38;;;;;;;10.20;6.23;;;21.60;99.90;;;;;;5073557;28;20468;-64
2022/05/28 02:04:05;;;;;;;10.40;6.60;;;21.50;99.90;;;;;;5073289;28;20449;-65
2022/05/28 02:06:34;;;;;;;11.80;6.50;;;21.60;99.90;;;;;;5073318;28;20472;-64
2022/05/28 02:09:03;;;;;;;12.13;6.60;;;21.60;99.90;;;;;;5073488;28;20449;-63
2022/05/28 02:11:43;;;;;;;16.57;7.10;;;21.60;99.90;;;;;;5073367;28;20492;-65
2022/05/28 02:14:21;;;;;;;12.57;7.37;;;21.50;99.90;;;;;;5073218;28;20445;-65
2022/05/28 02:16:56;;;;;;;8.40;6.53;;;21.60;99.90;;;;;;5073095;28;20892;-64
2022/05/28 02:19:30;;;;;;;9.83;6.20;;;21.80;99.90;;;;;;5072800;28;20456;-66
2022/05/28 02:22:04;;;;;;;10.53;6.43;;;21.90;99.90;;;;;;5073162;28;20456;-63
2022/05/28 02:24:36;;;;;;;9.07;6.53;;;22.10;99.90;;;;;;5072856;28;20806;-65
2022/05/28 02:27:07;;;;;;;12.73;7.00;;;22.20;99.90;;;;;;5072732;28;20980;-65
2022/05/28 02:29:35;;;;;;;14.47;7.13;;;22.10;99.90;;;;;;5073080;28;20453;-66
2022/05/28 02:32:13;;;;;;;8.43;6.87;;;22.00;99.90;;;;;;5073125;28;20448;-65
2022/05/28 02:34:41;;;;;;;10.33;6.53;;;22.00;99.90;;;;;;5072426;28;20543;-64
2022/05/28 02:37:08;;;;;;;14.90;6.80;;;22.10;99.90;;;;;;5072703;28;20477;-64
2022/05/28 02:39:35;;;;;;;9.40;6.37;;;22.20;99.90;;;;;;5072878;28;20576;-63
2022/05/28 02:42:02;;;;;;;11.60;5.60;;;22.10;99.90;;;;;;5072324;28;20583;-64
2022/05/28 02:44:29;;;;;;;11.20;5.80;;;22.10;99.90;;;;;;5072802;28;20455;-65
2022/05/28 02:46:56;;;;;;;10.23;5.40;;;22.20;99.90;;;;;;5072640;28;20569;-66
2022/05/28 02:49:25;;;;;;;8.60;5.30;;;22.20;99.90;;;;;;5072288;28;20933;-63
2022/05/28 02:51:53;;;;;;;7.50;5.20;;;22.20;99.90;;;;;;5072306;28;20448;-64
2022/05/28 02:54:20;;;;;;;11.30;5.90;;;22.10;99.90;;;;;;5072378;28;20482;-62
2022/05/28 02:56:47;;;;;;;8.10;5.50;;;22.10;99.90;;;;;;5072407;28;20822;-64
2022/05/28 02:59:15;;;;;;;10.03;6.10;;;22.00;99.90;;;;;;5072515;28;20836;-64
2022/05/28 03:01:42;;;;;;;10.10;4.70;;;21.90;99.90;;;;;;5072309;28;20851;-64
2022/05/28 03:04:09;;;;;;;8.30;5.10;;;21.80;99.90;;;;;;5072359;28;20852;-65
2022/05/28 03:06:38;;;;;;;9.50;5.37;;;21.70;99.90;;;;;;5072210;28;20464;-65
2022/05/28 03:09:06;;;;;;;8.10;4.97;;;21.80;99.90;;;;;;5072240;28;20449;-64
2022/05/28 03:11:34;;;;;;;9.50;5.17;;;21.80;99.90;;;;;;5072155;28;20449;-63
2022/05/28 03:14:01;;;;;;;9.10;4.80;;;21.90;99.90;;;;;;5072181;28;20445;-66
2022/05/28 03:16:28;;;;;;;6.40;4.27;;;22.00;99.90;;;;;;5071719;28;20500;-65
2022/05/28 03:18:55;;;;;;;8.07;4.80;;;22.10;99.90;;;;;;5071825;28;20925;-64
2022/05/28 03:21:23;;;;;;;7.50;3.80;;;22.30;99.90;;;;;;5071888;28;20449;-67
2022/05/28 03:23:51;;;;;;;8.50;4.67;;;22.30;99.90;;;;;;5072108;28;20892;-63
2022/05/28 03:26:20;;;;;;;8.43;5.73;;;22.30;99.90;;;;;;5071798;28;20472;-65
2022/05/28 03:28:49;;;;;;;7.37;4.60;;;22.50;99.90;;;;;;5071718;28;20797;-65
2022/05/28 03:31:16;;;;;;;9.80;4.50;;;22.50;99.90;;;;;;5071594;28;21090;-65
2022/05/28 03:33:44;;;;;;;9.33;4.23;;;22.50;99.90;;;;;;5071630;28;20461;-69
2022/05/28 03:36:12;;;;;;;7.70;5.10;;;22.50;99.90;;;;;;5071655;28;20488;-63
2022/05/28 03:38:39;;;;;;;7.93;4.40;;;22.40;99.90;;;;;;5071559;28;20535;-65
2022/05/28 03:41:08;;;;;;;8.77;5.00;;;22.40;99.90;;;;;;5071418;28;20469;-66
2022/05/28 03:43:35;;;;;;;9.27;5.80;;;22.60;99.90;;;;;;5071690;28;20464;-67
2022/05/28 03:46:03;;;;;;;8.00;4.83;;;22.60;99.90;;;;;;5071030;28;20464;-68
2022/05/28 03:48:31;;;;;;;8.20;5.33;;;22.60;99.90;;;;;;5071123;28;20460;-66
2022/05/28 03:50:59;;;;;;;9.30;4.37;;;22.60;99.90;;;;;;5071451;28;20457;-68
2022/05/28 03:53:27;;;;;;;11.60;4.50;;;22.70;99.90;;;;;;5071443;28;20457;-67
2022/05/28 03:55:54;;;;;;;10.77;5.50;;;22.80;99.90;;;;;;5070972;28;20492;-65
2022/05/28 03:58:22;;;;;;;11.97;6.40;;;22.80;99.90;;;;;;5071004;28;20455;-65
2022/05/28 04:00:49;;;;;;;8.90;6.00;;;23.00;99.90;;;;;;5071164;28;20835;-68
2022/05/28 04:03:16;;;;;;;9.63;5.70;;;23.00;99.90;;;;;;5071121;28;20913;-67
2022/05/28 04:05:44;;;;;;;8.80;5.00;;;23.00;99.90;;;;;;5071237;28;20469;-65
2022/05/28 04:08:11;;;;;;;9.93;5.90;;;23.00;99.90;;;;;;5071260;28;20469;-65
2022/05/28 04:10:38;;;;;;;8.17;6.10;;;22.90;99.90;;;;;;5071150;28;20449;-69
2022/05/28 04:13:05;;;;;;;11.00;6.20;;;23.00;99.90;;;;;;5071229;28;20522;-67
2022/05/28 04:15:34;;;;;;;10.03;4.80;;;23.20;99.90;;;;;;5070395;28;20492;-65
2022/05/28 04:18:01;;;;;;;7.73;5.23;;;23.30;99.90;;;;;;5070727;28;20930;-67
2022/05/28 04:20:28;;;;;;;12.07;6.10;;;23.30;99.90;;;;;;5070617;28;20437;-64
2022/05/28 04:22:55;;;;;;;9.90;5.57;;;23.40;99.90;;;;;;5071123;28;20449;-66
2022/05/28 04:25:22;;;;;;;8.83;6.27;;;23.50;99.90;;;;;;5070674;28;20460;-65
2022/05/28 04:27:49;;;;;;;9.70;6.40;;;23.00;99.90;;;;;;5070466;28;20480;-63
2022/05/28 04:30:16;;;;;;;10.50;5.40;;;22.80;99.90;;;;;;5070606;28;20484;-66
2022/05/28 04:32:45;;;;;;;10.50;5.70;;;23.00;99.90;;;;;;5070509;28;20448;-69
2022/05/28 04:35:12;;;;;;;7.83;4.97;;;22.70;99.90;;;;;;5070603;28;20460;-67
2022/05/28 04:37:39;;;;;;;8.03;5.30;;;22.50;99.90;;;;;;5070423;28;20471;-69
2022/05/28 04:40:08;;;;;;;8.87;4.70;;;22.60;99.90;;;;;;5070550;28;20459;-67
2022/05/28 04:42:35;;;;;;;9.83;4.30;;;22.60;99.90;;;;;;5070060;28;20989;-67
2022/05/28 04:45:03;;;;;;;10.73;5.33;;;22.60;99.90;;;;;;5070282;28;20456;-66
2022/05/28 04:47:30;;;;;;;10.93;6.20;;;22.30;99.90;;;;;;5070412;28;20861;-65
2022/05/28 04:49:59;;;;;;;16.10;6.70;;;22.10;99.90;;;;;;5070386;28;20460;-67
2022/05/28 04:52:26;;;;;;;13.27;6.73;;;21.90;99.90;;;;;;5070156;28;20457;-66
2022/05/28 04:54:53;;;;;;;15.67;6.60;;;21.90;99.90;;;;;;5070287;28;20462;-66
2022/05/28 04:57:20;;;;;;;11.33;5.80;;;22.00;99.90;;;;;;5070106;28;20508;-65
2022/05/28 04:59:47;;;;;;;13.10;7.00;;;22.00;99.90;;;;;;5070104;28;20461;-65
2022/05/28 05:02:15;;;;;;;10.80;6.60;;;21.90;99.90;;;;;;5070099;28;20460;-63
2022/05/28 05:04:42;;;;;;;12.00;6.93;;;21.90;99.90;;;;;;5069853;28;20551;-63
2022/05/28 05:07:10;;;;;;;10.70;6.40;;;22.00;99.90;;;;;;5069500;28;20468;-64
2022/05/28 05:09:37;;;;;;;13.17;7.37;;;22.10;99.90;;;;;;5070029;28;20449;-62
2022/05/28 05:12:05;;;;;;;10.67;7.10;;;22.10;99.90;;;;;;5069954;28;20850;-63
2022/05/28 05:14:32;;;;;;;12.23;7.63;;;22.00;99.90;;;;;;5070019;28;20502;-63
2022/05/28 05:16:59;;;;;;;10.13;7.67;;;21.70;99.90;;;;;;5069641;28;20977;-64
2022/05/28 05:19:26;;;;;;;11.47;7.80;;;21.30;99.90;;;;;;5069505;28;20930;-62
2022/05/28 05:21:55;;;;;;;11.87;7.63;;;21.00;99.90;;;;;;5069562;28;20453;-63
2022/05/28 05:24:24;;;;;;;13.13;9.17;;;20.90;99.90;;;;;;5069866;28;20816;-64
2022/05/28 05:26:51;;;;;;;9.63;7.67;;;21.00;99.90;;;;;;5069591;28;20966;-63
2022/05/28 05:29:19;;;;;;;14.30;7.50;;;21.10;99.90;;;;;;5069100;28;20451;-63
2022/05/28 05:31:47;;;;;;;11.40;7.53;;;21.10;99.90;;;;;;5069501;28;20453;-63
2022/05/28 05:34:14;;;;;;;12.83;8.63;;;21.10;99.90;;;;;;5069786;28;20448;-62
2022/05/28 05:36:41;;;;;;;11.33;8.40;;;21.10;99.90;;;;;;5069344;28;20489;-64
2022/05/28 05:39:08;;;;;;;12.70;8.47;;;21.20;99.90;;;;;;5069604;28;20463;-65
2022/05/28 05:41:40;;;;;;;13.67;8.47;;;21.20;99.90;;;;;;5069043;28;20497;-63
2022/05/28 05:44:07;;;;;;;11.73;7.70;;;21.40;99.90;;;;;;5069641;28;20463;-64
2022/05/28 05:46:35;;;;;;;13.47;8.57;;;21.50;99.90;;;;;;5069407;28;20488;-61
2022/05/28 05:49:02;;;;;;;16.83;9.50;;;21.70;99.90;;;;;;5069856;28;20770;-64
2022/05/28 05:51:29;;;;;;;14.83;9.30;;;21.80;99.90;;;;;;5069360;28;20453;-66
2022/05/28 05:53:56;;;;;;;15.37;8.87;;;21.90;99.90;;;;;;5069521;28;20937;-66
2022/05/28 05:56:23;;;;;;;13.13;8.37;;;22.20;99.90;;;;;;5069366;28;20488;-64
2022/05/28 05:58:51;;;;;;;17.60;8.60;;;22.30;99.90;;;;;;5069379;28;20456;-66
2022/05/28 06:01:19;;;;;;;12.00;9.03;;;22.60;99.90;;;;;;5069401;28;20499;-66
2022/05/28 06:03:46;;;;;;;11.43;8.30;;;22.80;99.90;;;;;;5069139;28;20449;-68
2022/05/28 06:06:15;;;;;;;12.67;8.47;;;22.80;99.90;;;;;;5069394;28;20476;-69
2022/05/28 06:08:42;;;;;;;18.57;8.70;;;23.00;99.90;;;;;;5069571;28;20491;-64
2022/05/28 06:11:09;;;;;;;14.63;9.27;;;23.20;99.90;;;;;;5069363;28;20522;-65
2022/05/28 06:13:36;;;;;;;12.70;9.83;;;23.20;99.90;;;;;;5068956;28;20460;-65
2022/05/28 06:16:06;;;;;;;15.33;9.40;;;23.20;99.90;;;;;;5069176;28;20539;-65
2022/05/28 06:18:33;;;;;;;14.80;9.30;;;23.20;99.90;;;;;;5069213;28;20449;-65
2022/05/28 06:21:01;;;;;;;17.50;8.27;;;23.20;99.90;;;;;;5069113;28;20502;-66
2022/05/28 06:23:29;;;;;;;13.37;9.20;;;23.10;99.90;;;;;;5069433;28;20460;-68
2022/05/28 06:25:56;;;;;;;11.33;8.93;;;23.20;99.90;;;;;;5069131;28;20492;-65
2022/05/28 06:28:24;;;;;;;14.40;9.10;;;23.20;99.90;;;;;;5069014;28;20456;-65
2022/05/28 06:30:51;;;;;;;10.23;7.93;;;23.40;99.90;;;;;;5069110;28;20449;-65
2022/05/28 06:33:20;;;;;;;12.60;8.73;;;23.30;99.90;;;;;;5069438;28;20457;-65
2022/05/28 06:35:47;;;;;;;11.90;8.87;;;23.40;99.90;;;;;;5069292;28;20932;-64
2022/05/28 06:38:14;;;;;;;12.90;9.57;;;23.50;99.90;;;;;;5069339;28;20440;-65
2022/05/28 06:40:41;;;;;;;12.20;8.37;;;23.60;99.90;;;;;;5071771;28;20456;-64
2022/05/28 06:43:08;;;;;;;12.20;8.70;;;23.90;99.90;;;;;;5072400;28;20985;-64
2022/05/28 06:45:35;;;;;;;11.77;8.10;;;23.90;99.90;;;;;;5072560;28;20465;-65
2022/05/28 06:48:02;;;;;;;12.27;8.43;;;24.00;99.90;;;;;;5072534;28;20444;-65
2022/05/28 06:53:16;;;;;;;10.83;8.40;;;24.30;99.90;;;;;;5072343;28;20428;-64
2022/05/28 06:55:43;;;;;;;14.53;7.50;;;24.60;99.90;;;;;;5072467;28;20469;-65
2022/05/28 06:58:10;;;;;;;14.80;8.27;;;24.70;99.90;;;;;;5072336;28;20856;-67
2022/05/28 07:00:37;;;;;;;8.80;6.67;;;24.90;99.90;;;;;;5072475;28;20453;-65
2022/05/28 07:03:06;;;;;;;11.13;7.07;;;25.00;99.90;;;;;;5071968;28;20475;-65
2022/05/28 07:05:34;;;;;;;13.70;6.87;;;25.00;99.90;;;;;;5071846;28;20457;-66
2022/05/28 07:08:01;;;;;;;9.33;6.63;;;25.10;99.90;;;;;;5072218;28;20468;-68
2022/05/28 07:10:29;;;;;;;13.13;7.37;;;25.00;99.90;;;;;;5072101;28;20457;-68
2022/05/28 07:12:56;;;;;;;10.83;7.10;;;25.20;99.90;;;;;;5072206;28;20455;-66
2022/05/28 07:15:24;;;;;;;15.03;7.73;;;25.60;99.90;;;;;;5072173;28;20526;-65
2022/05/28 07:17:51;;;;;;;10.83;5.43;;;25.80;99.90;;;;;;5071631;28;20485;-65
2022/05/28 07:20:18;;;;;;;8.90;5.93;;;25.90;99.90;;;;;;5071928;28;20818;-66
2022/05/28 07:22:46;;;;;;;10.13;5.40;;;25.80;99.90;;;;;;5071718;28;20445;-66
2022/05/28 07:25:14;;;;;;;9.93;6.07;;;25.90;99.90;;;;;;5071825;28;20795;-64
2022/05/28 07:27:41;;;;;;;7.50;5.17;;;25.90;99.90;;;;;;5071380;28;20832;-65
2022/05/28 07:30:10;;;;;;;9.37;6.40;;;25.90;99.90;;;;;;5071848;28;20531;-66
2022/05/28 07:32:37;;;;;;;12.40;6.20;;;26.20;99.90;;;;;;5071891;28;20924;-64
2022/05/28 07:35:05;;;;;;;12.80;6.03;;;26.60;99.90;;;;;;5071756;28;20910;-64
2022/05/28 07:37:33;;;;;;;11.57;6.13;;;26.70;99.90;;;;;;5071193;28;20488;-66
2022/05/28 07:40:01;;;;;;;13.10;6.43;;;27.00;99.90;;;;;;5071547;28;20452;-64
2022/05/28 07:42:28;;;;;;;12.67;6.57;;;27.20;99.90;;;;;;5070990;28;20488;-65
2022/05/28 07:44:56;;;;;;;14.40;6.80;;;27.50;99.90;;;;;;5071394;28;20445;-67
2022/05/28 07:47:23;;;;;;;10.97;7.17;;;27.80;99.90;;;;;;5070903;28;20461;-62
2022/05/28 07:49:50;;;;;;;12.13;6.40;;;28.20;99.90;;;;;;5070649;28;20449;-61
2022/05/28 07:52:18;;;;;;;13.43;6.80;;;28.50;99.90;;;;;;5070127;28;20448;-64
2022/05/28 07:54:45;;;;;;;10.77;6.17;;;28.60;99.90;;;;;;5071362;28;20525;-63
2022/05/28 07:57:13;;;;;;;10.07;5.57;;;28.80;99.90;;;;;;5071544;28;20496;-65
2022/05/28 07:59:40;;;;;;;14.13;5.57;;;29.00;99.90;;;;;;5071331;28;20461;-63
2022/05/28 08:02:07;;;;;;;8.40;5.20;;;29.20;99.90;;;;;;5070985;28;20964;-63
2022/05/28 08:04:34;;;;;;;13.43;5.60;;;29.40;99.90;;;;;;5071060;28;20456;-62
2022/05/28 08:07:02;;;;;;;14.70;5.40;;;29.50;99.90;;;;;;5071172;28;20471;-62
2022/05/28 08:09:29;;;;;;;9.77;4.70;;;29.60;99.90;;;;;;5071346;28;20540;-65
2022/05/28 08:11:56;;;;;;;9.63;4.57;;;29.70;99.90;;;;;;5071282;28;20469;-61
2022/05/28 08:14:24;;;;;;;11.93;4.90;;;29.90;99.80;;;;;;5071444;28;20460;-61
2022/05/28 08:16:51;;;;;;;11.63;4.33;;;29.90;99.70;;;;;;5070588;28;20897;-65
2022/05/28 08:19:18;;;;;;;12.57;4.93;;;30.00;98.00;;;;;;5070625;28;20798;-64
2022/05/28 08:24:30;;;;;;;13.37;5.10;;;30.30;97.80;;;;;;5071075;28;20436;-65
2022/05/28 08:26:58;;;;;;;9.23;4.30;;;30.60;97.00;;;;;;5070822;28;20538;-66
2022/05/28 08:29:26;;;;;;;13.07;5.43;;;30.70;94.90;;;;;;5070472;28;20569;-64
2022/05/28 08:31:53;;;;;;;9.60;5.03;;;30.80;94.10;;;;;;5070528;28;20453;-64
2022/05/28 08:34:20;;;;;;;17.63;5.33;;;30.90;92.50;;;;;;5070382;28;20786;-66
2022/05/28 08:36:47;;;;;;;12.27;4.70;;;31.00;92.10;;;;;;5070402;28;20864;-63
2022/05/28 08:39:14;;;;;;;11.17;4.77;;;31.10;90.90;;;;;;5069987;28;20464;-63
2022/05/28 08:41:47;;;;;;;13.13;5.20;;;31.30;89.20;;;;;;5069977;28;20481;-66
2022/05/28 08:44:17;;;;;;;12.27;5.47;;;31.30;89.00;;;;;;5070313;28;20499;-66
2022/05/28 08:46:49;;;;;;;16.00;5.40;;;31.40;90.10;;;;;;5070266;28;20473;-64
2022/05/28 08:49:16;;;;;;;14.30;5.43;;;31.50;89.40;;;;;;5070097;28;20461;-66
2022/05/28 08:51:48;;;;;;;18.97;4.67;;;31.60;86.20;;;;;;5070303;28;20461;-64
2022/05/28 08:54:24;;;;;;;16.70;5.20;;;31.70;87.40;;;;;;5069866;28;20464;-63
2022/05/28 08:56:55;;;;;;;12.20;5.50;;;31.80;84.60;;;;;;5069785;28;20528;-64
2022/05/28 08:59:27;;;;;;;16.13;6.00;;;31.70;83.30;;;;;;5069678;28;20456;-65
2022/05/28 09:01:56;;;;;;;9.63;6.00;;;31.40;83.30;;;;;;5069646;28;20449;-65
2022/05/28 09:04:27;;;;;;;16.97;5.90;;;31.40;84.80;;;;;;5070082;28;20445;-64
2022/05/28 09:07:06;;;;;;;11.07;5.47;;;31.30;84.40;;;;;;5069807;28;20464;-64
2022/05/28 09:09:42;;;;;;;10.80;5.60;;;31.30;85.20;;;;;;5069909;28;20456;-62
2022/05/28 09:12:14;;;;;;;12.97;5.50;;;31.20;82.60;;;;;;5070130;28;20452;-64
2022/05/28 09:14:42;;;;;;;12.00;6.10;;;31.00;83.30;;;;;;5069813;28;20475;-64
2022/05/28 09:17:21;;;;;;;14.07;5.63;;;31.00;83.50;;;;;;5069349;28;20484;-64
2022/05/28 09:19:49;;;;;;;10.70;5.20;;;31.30;84.10;;;;;;5069508;28;20453;-63
2022/05/28 09:22:16;;;;;;;8.80;5.00;;;31.60;85.80;;;;;;5069490;28;20459;-62
2022/05/28 09:24:44;;;;;;;9.40;5.13;;;31.70;84.50;;;;;;5069263;28;21008;-63
2022/05/28 09:27:21;;;;;;;14.57;6.07;;;31.60;84.20;;;;;;5070150;28;20889;-63
2022/05/28 09:30:06;;;;;;;13.73;6.53;;;31.60;84.80;;;;;;5069769;28;20456;-64
2022/05/28 09:32:48;;;;;;;13.60;6.10;;;31.40;83.20;;;;;;5054927;28;20449;-64
2022/05/28 09:35:23;;;;;;;11.60;6.50;;;31.40;83.70;;;;;;5069746;28;20496;-62
2022/05/28 09:37:58;;;;;;;10.97;6.37;;;31.60;83.10;;;;;;5069522;28;20484;-64
2022/05/28 09:40:35;;;;;;;12.10;5.60;;;31.70;83.10;;;;;;5069306;28;20483;-62
2022/05/28 09:43:27;;;;;;;12.43;6.37;;;32.00;83.20;;;;;;5069339;28;20567;-63
2022/05/28 09:46:00;;;;;;;12.47;6.00;;;32.40;84.00;;;;;;5069466;28;20469;-63
2022/05/28 09:48:30;;;;;;;15.03;5.90;;;32.70;81.40;;;;;;5069365;28;20472;-64
2022/05/28 09:50:57;;;;;;;10.73;6.40;;;33.00;82.50;;;;;;5069544;28;20840;-61
2022/05/28 09:56:21;;;;;;;10.17;5.97;;;33.40;79.70;;;;;;5069524;28;20556;-64
2022/05/28 09:58:48;;;;;;;13.33;6.40;;;33.10;78.20;;;;;;5069220;28;20857;-63
2022/05/28 10:01:20;;;;;;;12.27;7.00;;;33.10;78.40;;;;;;5069305;28;20487;-65
2022/05/28 10:06:44;;;;;;;12.23;6.37;;;33.10;77.30;;;;;;5069392;28;20453;-65
2022/05/28 10:09:18;;;;;;;14.13;7.10;;;32.90;77.50;;;;;;5068984;28;20453;-65
2022/05/28 10:11:53;;;;;;;8.87;6.87;;;33.00;77.20;;;;;;5069280;28;20468;-65
2022/05/28 10:14:22;;;;;;;10.30;6.50;;;32.90;78.30;;;;;;5070117;28;20464;-63
2022/05/28 10:16:50;;;;;;;10.40;6.60;;;32.70;77.10;;;;;;5073092;28;20473;-65
2022/05/28 10:19:25;;;;;;;15.23;6.10;;;32.60;79.50;;;;;;5072857;28;21050;-66
2022/05/28 10:21:54;;;;;;;16.50;8.70;;;32.30;78.10;;;;;;5072844;28;20457;-64
2022/05/28 10:24:23;;;;;;;13.90;7.33;;;32.20;77.40;;;;;;5073033;28;20453;-64
2022/05/28 10:26:53;;;;;;;13.27;8.07;;;31.80;77.20;;;;;;5073013;28;20477;-66
2022/05/28 10:29:27;;;;;;;10.73;6.33;;;31.80;78.90;;;;;;5073030;28;20952;-67
2022/05/28 10:31:55;;;;;;;10.60;6.50;;;31.70;80.20;;;;;;5073162;28;20961;-64
2022/05/28 10:34:33;;;;;;;12.90;7.70;;;31.80;81.10;;;;;;5072684;28;20953;-64
2022/05/28 10:37:14;;;;;;;13.27;8.13;;;31.90;82.80;;;;;;5072831;28;20837;-65
2022/05/28 10:39:42;;;;;;;10.83;7.10;;;32.00;84.10;;;;;;5072896;28;20500;-66
2022/05/28 10:42:11;;;;;;;14.03;6.70;;;32.00;83.90;;;;;;5072242;28;20919;-65
2022/05/28 10:44:39;;;;;;;10.13;6.60;;;32.10;83.40;;;;;;5072726;28;20460;-65
2022/05/28 10:47:37;;;;;;;13.13;7.37;;;32.20;82.50;;;;;;5072524;28;20546;-66
2022/05/28 10:50:17;;;;;;;10.73;7.03;;;32.30;81.30;;;;;;5024530;28;20480;-64
2022/05/28 10:52:55;;;;;;;12.20;6.90;;;32.30;83.00;;;;;;5072612;28;20901;-65
2022/05/28 10:55:30;;;;;;;11.60;5.73;;;32.40;82.00;;;;;;5072571;28;20467;-64
2022/05/28 10:58:12;;;;;;;11.00;6.73;;;32.70;77.00;;;;;;5072431;28;20484;-65
2022/05/28 11:00:48;;;;;;;10.50;5.53;;;32.80;77.20;;;;;;5072652;28;20848;-64
2022/05/28 11:03:42;;;;;;;12.77;6.50;;;32.90;77.30;;;;;;5072529;28;20472;-65
2022/05/28 11:06:27;;;;;;;10.70;6.27;;;32.70;75.20;;;;;;5072345;28;20991;-65
2022/05/28 11:09:03;;;;;;;12.93;6.30;;;32.70;74.50;;;;;;5072627;28;20452;-64
2022/05/28 11:11:45;;;;;;;13.33;6.27;;;32.80;74.80;;;;;;5072456;28;20515;-63
2022/05/28 11:14:31;;;;;;;9.30;5.93;;;33.10;74.10;;;;;;5072387;28;20464;-64
2022/05/28 11:17:12;;;;;;;10.00;6.10;;;33.60;74.30;;;;;;5072361;28;20479;-65
2022/05/28 11:19:57;;;;;;;13.03;6.47;;;33.70;72.90;;;;;;5072341;28;20952;-65
2022/05/28 11:22:53;;;;;;;13.57;6.80;;;33.80;73.60;;;;;;5071954;28;20461;-64
2022/05/28 11:25:26;;;;;;;13.03;7.10;;;33.80;72.20;;;;;;5071653;28;20457;-64
2022/05/28 11:28:08;;;;;;;8.57;6.00;;;33.70;71.50;;;;;;5072048;28;20441;-65
2022/05/28 11:30:40;;;;;;;14.00;6.80;;;33.50;71.90;;;;;;5071760;28;20449;-64
2022/05/28 11:33:17;;;;;;;8.50;5.90;;;33.20;69.50;;;;;;5071625;28;20457;-65
2022/05/28 11:35:48;;;;;;;12.50;5.70;;;33.10;71.90;;;;;;5071591;28;20475;-66
2022/05/28 11:38:21;;;;;;;11.20;6.53;;;32.90;73.00;;;;;;5071740;28;20493;-67
2022/05/28 11:40:57;;;;;;;10.77;6.47;;;32.90;73.20;;;;;;5071516;28;20463;-67
2022/05/28 11:43:29;;;;;;;11.10;6.20;;;32.70;72.10;;;;;;5071335;28;20465;-65
2022/05/28 11:46:01;;;;;;;10.97;6.20;;;32.60;73.60;;;;;;5071426;28;20626;-65
2022/05/28 11:51:29;;;;;;;9.17;6.07;;;32.20;72.00;;;;;;5070211;28;20456;-63
2022/05/28 11:54:04;;;;;;;12.40;6.33;;;32.00;71.90;;;;;;5071249;28;20980;-64
2022/05/28 11:56:31;;;;;;;15.63;7.00;;;31.90;73.40;;;;;;5071533;28;20464;-64
2022/05/28 11:59:03;;;;;;;13.43;6.20;;;31.70;75.60;;;;;;5071136;28;20489;-65
2022/05/28 12:01:42;;;;;;;8.10;5.93;;;31.60;75.60;;;;;;5071317;28;20456;-66
2022/05/28 12:04:11;;;;;;;10.77;6.40;;;31.50;76.20;;;;;;5071374;28;20460;-65
2022/05/28 12:06:46;;;;;;;12.53;6.10;;;31.40;75.50;;;;;;5071145;28;20479;-66
2022/05/28 12:09:26;;;;;;;12.20;6.40;;;31.20;75.80;;;;;;5071290;28;20460;-64
2022/05/28 12:12:03;;;;;;;13.00;6.80;;;30.90;76.90;;;;;;5072000;28;20452;-66
2022/05/28 12:14:33;;;;;;;13.10;6.97;;;30.50;79.40;;;;;;5072910;28;20452;-65
2022/05/28 12:17:08;;;;;;;13.13;7.03;;;30.10;81.80;;;;;;5074147;28;20481;-70
2022/05/28 12:19:44;;;;;;;11.97;6.83;;;29.50;83.70;;;;;;5070950;28;20840;-64
2022/05/28 12:22:30;;;;;;;12.13;7.90;;;29.00;85.90;;;;;;5071014;28;20449;-64
2022/05/28 12:25:25;;;;;;;12.90;7.50;;;28.70;88.40;;;;;;5070956;28;20453;-64
2022/05/28 12:28:08;;;;;;;11.50;7.40;;;28.20;90.90;;;;;;5070862;28;20547;-64
2022/05/28 12:30:51;;;;;;;12.30;6.77;;;27.90;92.80;;;;;;5070675;28;20539;-64
2022/05/28 12:33:30;;;;;;;12.33;6.90;;;27.50;94.70;;;;;;5070152;28;20461;-64
2022/05/28 12:36:10;;;;;;;12.00;7.50;;;27.10;97.30;;;;;;5070308;28;20518;-63
2022/05/28 12:38:53;;;;;;;14.20;7.17;;;27.00;99.90;;;;;;5069521;28;20520;-67
2022/05/28 12:41:24;;;;;;;18.20;7.30;;;26.60;99.90;;;;;;5070295;28;20488;-61
2022/05/28 12:43:58;;;;;;;13.70;8.40;;;26.40;99.90;;;;;;5070056;28;20453;-68
2022/05/28 12:46:45;;;;;;;13.87;8.47;;;26.30;99.90;;;;;;5070041;28;20480;-66
2022/05/28 12:49:24;;;;;;;13.43;7.97;;;26.10;99.90;;;;;;5070197;28;20957;-68
2022/05/28 12:52:04;;;;;;;12.43;7.77;;;25.90;99.90;;;;;;5070238;28;20641;-67
2022/05/28 12:54:34;;;;;;;13.63;8.30;;;25.60;99.90;;;;;;5069917;28;20966;-63
2022/05/28 12:57:09;;;;;;;13.13;8.57;;;25.40;99.90;;;;;;5069980;28;20977;-66
2022/05/28 12:59:38;;;;;;;12.23;7.80;;;25.30;99.90;;;;;;5070271;28;20480;-68
2022/05/28 13:02:19;;;;;;;15.70;8.87;;;25.30;99.90;;;;;;5070236;28;20453;-62
2022/05/28 13:04:50;;;;;;;15.57;8.93;;;25.30;99.90;;;;;;5069959;28;20873;-65
2022/05/28 13:07:23;;;;;;;13.90;8.40;;;25.30;99.90;;;;;;5069864;28;20533;-66
2022/05/28 13:09:56;;;;;;;14.83;8.20;;;25.30;99.90;;;;;;5070413;28;20484;-66
2022/05/28 13:12:29;;;;;;;15.20;8.50;;;25.30;99.90;;;;;;5070209;28;20445;-69